createdAt,value
2019-04-04T00:03:59.969Z,21.93
2019-04-04T00:09:05.535Z,21.91
2019-04-04T00:14:12.738Z,21.88
2019-04-04T00:19:15.384Z,21.85
2019-04-04T00:24:19.503Z,21.85
2019-04-04T00:29:23.594Z,21.84
2019-04-04T00:34:28.590Z,21.82
2019-04-04T00:39:32.830Z,21.80
2019-04-04T00:44:36.934Z,21.78
2019-04-04T00:49:40.979Z,21.78
2019-04-04T00:54:45.471Z,21.78
2019-04-04T00:59:49.563Z,21.75
2019-04-04T01:04:53.635Z,21.73
2019-04-04T01:09:57.667Z,21.73
2019-04-04T01:15:01.748Z,21.71
2019-04-04T01:20:08.549Z,21.71
2019-04-04T01:25:12.730Z,21.68
2019-04-04T01:30:17.007Z,21.65
2019-04-04T01:35:22.887Z,21.64
2019-04-04T01:40:26.850Z,21.64
2019-04-04T01:45:30.938Z,21.62
2019-04-04T01:50:34.943Z,21.61
2019-04-04T01:55:38.959Z,21.61
2019-04-04T02:00:44.006Z,21.60
2019-04-04T02:05:48.746Z,21.55
2019-04-04T02:10:52.915Z,21.45
2019-04-04T02:15:56.957Z,21.53
2019-04-04T02:21:00.991Z,21.51
2019-04-04T02:26:05.769Z,21.51
2019-04-04T02:31:10.438Z,21.51
2019-04-04T02:36:16.629Z,21.49
2019-04-04T02:41:20.291Z,21.48
2019-04-04T02:46:24.308Z,21.46
2019-04-04T02:51:28.485Z,21.45
2019-04-04T02:56:34.927Z,21.45
2019-04-04T03:01:38.377Z,21.37
2019-04-04T03:06:42.868Z,21.33
2019-04-04T03:11:47.071Z,21.31
2019-04-04T03:16:51.236Z,21.31
2019-04-04T03:21:56.148Z,21.28
2019-04-04T03:27:00.982Z,21.28
2019-04-04T03:32:05.079Z,21.26
2019-04-04T03:37:12.311Z,21.25
2019-04-04T03:42:14.953Z,21.25
2019-04-04T03:47:18.953Z,21.25
2019-04-04T03:52:23.013Z,21.23
2019-04-04T03:57:27.043Z,21.22
2019-04-04T04:02:31.157Z,21.22
2019-04-04T04:07:35.172Z,21.19
2019-04-04T04:12:42.695Z,21.19
2019-04-04T04:17:45.646Z,21.16
2019-04-04T04:22:51.527Z,21.15
2019-04-04T04:27:55.684Z,21.15
2019-04-04T04:32:59.822Z,21.13
2019-04-04T04:38:03.841Z,21.13
2019-04-04T04:43:07.865Z,21.10
2019-04-04T04:48:11.895Z,21.09
2019-04-04T04:53:18.339Z,21.09
2019-04-04T04:58:21.752Z,21.03
2019-04-04T05:03:25.809Z,21.02
2019-04-04T05:08:29.804Z,21.03
2019-04-04T05:13:33.810Z,21.01
2019-04-04T05:18:37.811Z,20.99
2019-04-04T05:23:41.873Z,20.99
2019-04-04T05:28:45.968Z,20.98
2019-04-04T05:33:49.968Z,20.98
2019-04-04T05:38:54.047Z,20.89
2019-04-04T05:43:58.117Z,20.87
2019-04-04T05:49:07.756Z,20.86
2019-04-04T05:54:08.406Z,20.94
2019-04-04T05:59:12.576Z,20.95
2019-04-04T06:04:17.261Z,20.94
2019-04-04T06:09:22.310Z,20.94
2019-04-04T06:14:29.674Z,20.93
2019-04-04T06:19:32.054Z,20.93
2019-04-04T06:24:36.067Z,20.92
2019-04-04T06:29:40.138Z,20.91
2019-04-04T06:34:44.817Z,20.91
2019-04-04T06:39:48.914Z,20.91
2019-04-04T06:44:54.258Z,20.91
2019-04-04T06:49:58.521Z,20.90
2019-04-04T06:55:02.614Z,20.78
2019-04-04T07:00:08.468Z,20.78
2019-04-04T07:05:12.567Z,16.13
2019-04-04T07:10:16.760Z,15.48
2019-04-04T07:15:20.784Z,15.45
2019-04-04T07:20:24.795Z,15.45
2019-04-04T07:25:28.798Z,15.52
2019-04-04T07:30:32.813Z,17.02
2019-04-04T07:35:36.893Z,18.91
2019-04-04T07:40:40.927Z,18.91
2019-04-04T07:45:44.953Z,20.38
2019-04-04T07:50:51.386Z,20.40
2019-04-04T07:55:54.963Z,20.40
2019-04-04T08:01:00.065Z,20.81
2019-04-04T08:06:04.161Z,20.81
2019-04-04T08:11:08.320Z,20.96
2019-04-04T08:16:12.483Z,21.00
2019-04-04T08:21:16.491Z,21.00
2019-04-04T08:26:20.660Z,20.75
2019-04-04T08:31:24.675Z,20.76
2019-04-04T08:36:28.763Z,20.76
2019-04-04T08:41:32.788Z,20.77
2019-04-04T08:46:36.971Z,20.74
2019-04-04T08:51:41.100Z,20.67
2019-04-04T08:56:45.114Z,20.76
2019-04-04T09:01:49.154Z,20.78
2019-04-04T09:06:53.159Z,20.77
2019-04-04T09:11:57.251Z,20.77
2019-04-04T09:17:01.376Z,20.79
2019-04-04T09:22:05.546Z,20.77
2019-04-04T09:27:09.571Z,20.70
2019-04-04T09:32:13.700Z,20.76
2019-04-04T09:37:17.737Z,20.68
2019-04-04T09:42:21.749Z,20.76
2019-04-04T09:47:25.856Z,20.69
2019-04-04T09:52:29.960Z,20.76
2019-04-04T09:57:33.996Z,20.76
2019-04-04T10:02:38.081Z,20.74
2019-04-04T10:07:42.195Z,20.74
2019-04-04T10:12:46.282Z,20.76
2019-04-04T10:17:50.333Z,20.76
2019-04-04T10:22:54.367Z,20.76
2019-04-04T10:27:58.450Z,20.77
2019-04-04T10:33:02.481Z,20.77
2019-04-04T10:38:06.487Z,20.79
2019-04-04T10:43:10.561Z,20.80
2019-04-04T10:48:14.606Z,20.81
2019-04-04T10:53:18.631Z,20.82
2019-04-04T10:58:22.642Z,20.84
2019-04-04T11:03:26.815Z,20.84
2019-04-04T11:08:30.921Z,20.86
2019-04-04T11:13:34.940Z,20.93
2019-04-04T11:18:38.964Z,20.96
2019-04-04T11:23:43.111Z,20.96
2019-04-04T11:28:47.121Z,20.50
2019-04-04T11:33:51.127Z,20.33
2019-04-04T11:38:55.207Z,20.37
2019-04-04T11:43:59.237Z,20.27
2019-04-04T11:49:04.065Z,20.25
2019-04-04T11:54:08.086Z,20.24
2019-04-04T11:59:12.102Z,20.25
2019-04-04T12:04:16.207Z,20.25
2019-04-04T12:09:20.231Z,20.28
2019-04-04T12:14:24.241Z,20.33
2019-04-04T12:19:28.245Z,20.26
2019-04-04T12:24:32.321Z,20.29
2019-04-04T12:29:36.387Z,20.27
2019-04-04T12:34:40.484Z,20.26
2019-04-04T12:39:44.630Z,20.23
2019-04-04T12:44:48.714Z,20.23
2019-04-04T12:49:52.808Z,20.29
2019-04-04T12:54:56.886Z,20.25
2019-04-04T13:00:00.928Z,20.43
2019-04-04T13:05:05.608Z,20.45
2019-04-04T13:10:12.057Z,20.71
2019-04-04T13:15:16.934Z,20.97
2019-04-04T13:20:21.191Z,20.99
2019-04-04T13:25:25.563Z,21.02
2019-04-04T13:30:29.568Z,21.02
2019-04-04T13:35:33.598Z,21.05
2019-04-04T13:40:45.182Z,21.08
2019-04-04T13:45:43.538Z,21.08
2019-04-04T13:50:47.632Z,21.14
2019-04-04T13:55:51.753Z,21.08
2019-04-04T14:00:55.796Z,21.11
2019-04-04T14:06:01.830Z,21.13
2019-04-04T14:11:05.651Z,21.16
2019-04-04T14:16:09.768Z,21.18
2019-04-04T14:21:13.951Z,21.18
2019-04-04T14:26:17.993Z,21.36
2019-04-04T14:31:22.003Z,21.29
2019-04-04T14:36:26.073Z,21.29
2019-04-04T14:41:30.111Z,21.42
2019-04-04T14:46:34.579Z,21.38
2019-04-04T14:51:38.597Z,21.37
2019-04-04T14:56:42.740Z,21.32
2019-04-04T15:01:46.858Z,21.43
2019-04-04T15:06:51.021Z,21.58
2019-04-04T15:11:55.107Z,21.48
2019-04-04T15:16:59.086Z,21.48
2019-04-04T15:22:03.193Z,21.54
2019-04-04T15:27:07.310Z,21.64
2019-04-04T15:32:11.468Z,21.64
2019-04-04T15:37:15.442Z,21.63
2019-04-04T15:42:19.495Z,21.86
2019-04-04T15:47:23.504Z,21.80
2019-04-04T15:52:27.549Z,21.92
2019-04-04T15:57:31.720Z,21.91
2019-04-04T16:02:35.954Z,21.92
2019-04-04T16:07:40.096Z,22.11
2019-04-04T16:12:44.089Z,22.35
2019-04-04T16:17:48.221Z,22.71
2019-04-04T16:22:52.248Z,22.83
2019-04-04T16:27:56.381Z,22.83
2019-04-04T16:33:00.503Z,22.79
2019-04-04T16:38:04.751Z,22.79
2019-04-04T16:43:08.768Z,22.89
2019-04-04T16:48:13.997Z,22.82
2019-04-04T16:53:18.271Z,22.88
2019-04-04T16:58:22.594Z,22.92
2019-04-04T17:03:26.725Z,22.87
2019-04-04T17:08:30.924Z,22.88
2019-04-04T17:13:34.987Z,22.79
2019-04-04T17:18:39.189Z,22.69
2019-04-04T17:23:43.293Z,22.68
2019-04-04T17:28:47.917Z,22.57
2019-04-04T17:33:52.643Z,22.57
2019-04-04T17:38:56.794Z,22.69
2019-04-04T17:44:01.072Z,22.73
2019-04-04T17:49:05.509Z,22.64
2019-04-04T17:54:09.695Z,22.90
2019-04-04T17:59:13.899Z,23.03
2019-04-04T18:04:17.911Z,23.10
2019-04-04T18:09:31.740Z,23.10
2019-04-04T18:14:28.368Z,23.05
2019-04-04T18:19:32.483Z,22.93
2019-04-04T18:24:36.710Z,22.94
2019-04-04T18:29:40.807Z,22.86
2019-04-04T18:34:45.241Z,22.81
2019-04-04T18:39:49.451Z,22.65
2019-04-04T18:44:53.494Z,22.65
2019-04-04T18:49:57.492Z,22.66
2019-04-04T18:55:01.525Z,22.65
2019-04-04T19:00:08.555Z,22.65
2019-04-04T19:05:13.506Z,22.70
2019-04-04T19:10:18.287Z,22.74
2019-04-04T19:15:22.440Z,22.74
2019-04-04T19:20:27.703Z,22.61
2019-04-04T19:25:31.845Z,22.55
2019-04-04T19:30:36.063Z,22.51
2019-04-04T19:35:40.257Z,22.55
2019-04-04T19:40:44.390Z,22.52
2019-04-04T19:45:48.417Z,22.50
2019-04-04T19:50:52.470Z,22.40
2019-04-04T19:55:56.625Z,22.44
2019-04-04T20:01:00.832Z,22.43
2019-04-04T20:06:05.034Z,22.43
2019-04-04T20:11:09.236Z,22.39
2019-04-04T20:16:13.268Z,22.37
2019-04-04T20:21:17.405Z,22.38
2019-04-04T20:26:21.430Z,22.38
2019-04-04T20:31:25.504Z,22.34
2019-04-04T20:36:29.771Z,22.43
2019-04-04T20:41:33.843Z,22.47
2019-04-04T20:46:37.981Z,22.44
2019-04-04T20:51:42.234Z,22.39
2019-04-04T20:56:46.415Z,22.32
2019-04-04T21:01:50.705Z,22.38
2019-04-04T21:06:54.759Z,22.36
2019-04-04T21:11:58.871Z,22.37
2019-04-04T21:17:03.102Z,22.37
2019-04-04T21:22:07.314Z,22.35
2019-04-04T21:27:11.393Z,22.43
2019-04-04T21:32:15.573Z,22.43
2019-04-04T21:37:19.705Z,22.30
2019-04-04T21:42:23.783Z,22.38
2019-04-04T21:47:27.865Z,22.28
2019-04-04T21:52:31.972Z,22.40
2019-04-04T21:57:36.133Z,22.40
2019-04-04T22:02:40.432Z,22.41
2019-04-04T22:07:44.553Z,22.37
2019-04-04T22:12:48.610Z,22.39
2019-04-04T22:17:52.778Z,22.41
2019-04-04T22:22:56.855Z,22.38
2019-04-04T22:28:00.949Z,22.31
2019-04-04T22:33:05.131Z,22.37
2019-04-04T22:38:09.335Z,22.41
2019-04-04T22:43:13.374Z,22.41
2019-04-04T22:48:18.707Z,22.38
2019-04-04T22:59:18.659Z,22.41
2019-04-04T23:04:22.685Z,22.36
2019-04-04T23:09:26.681Z,22.32
2019-04-04T23:14:30.684Z,22.32
2019-04-04T23:19:34.740Z,22.20
2019-04-04T23:24:38.887Z,22.17
2019-04-04T23:29:42.909Z,22.17
2019-04-04T23:34:47.022Z,22.14
2019-04-04T23:39:51.050Z,22.09
2019-04-04T23:45:00.983Z,22.09
2019-04-04T23:50:00.916Z,22.05
2019-04-04T23:55:05.387Z,22.05
